createdAt,value
2023-01-29T00:00:11.847Z,67.83
2023-01-29T00:03:18.121Z,67.57
2023-01-29T00:06:23.439Z,67.56
2023-01-29T00:09:27.079Z,67.63
2023-01-29T00:12:32.282Z,68.16
2023-01-29T00:15:36.014Z,68.17
2023-01-29T00:18:40.469Z,67.40
2023-01-29T00:21:44.156Z,68.65
2023-01-29T00:24:47.826Z,67.87
2023-01-29T00:27:52.923Z,68.41
2023-01-29T00:30:56.701Z,68.46
2023-01-29T00:34:00.375Z,68.27
2023-01-29T00:37:06.676Z,67.61
2023-01-29T00:40:11.796Z,68.90
2023-01-29T00:43:34.193Z,68.25
2023-01-29T00:46:37.880Z,68.68
2023-01-29T00:49:41.650Z,68.04
2023-01-29T00:52:46.044Z,67.85
2023-01-29T00:55:49.817Z,68.04
2023-01-29T00:58:55.266Z,68.15
2023-01-29T01:02:16.363Z,67.56
2023-01-29T01:05:20.737Z,67.07
2023-01-29T01:08:41.665Z,67.33
2023-01-29T01:11:45.362Z,67.01
2023-01-29T01:14:50.710Z,67.28
2023-01-29T01:17:55.640Z,67.13
2023-01-29T01:20:59.917Z,67.81
2023-01-29T01:24:06.260Z,67.73
2023-01-29T01:27:10.026Z,68.28
2023-01-29T01:30:18.014Z,67.36
2023-01-29T01:33:22.002Z,68.68
2023-01-29T01:36:25.501Z,68.23
2023-01-29T01:39:29.274Z,67.60
2023-01-29T01:42:33.722Z,68.10
2023-01-29T01:45:42.691Z,68.13
2023-01-29T01:48:49.224Z,67.64
2023-01-29T01:51:54.459Z,68.04
2023-01-29T01:54:58.986Z,67.61
2023-01-29T01:58:08.072Z,68.08
2023-01-29T02:01:13.694Z,67.99
2023-01-29T02:04:37.457Z,68.16
2023-01-29T02:08:01.720Z,67.95
2023-01-29T02:11:07.467Z,68.46
2023-01-29T02:14:11.070Z,68.12
2023-01-29T02:17:18.463Z,67.41
2023-01-29T02:20:26.020Z,67.93
2023-01-29T02:23:54.662Z,68.28
2023-01-29T02:27:09.026Z,69.21
2023-01-29T02:30:19.054Z,68.76
2023-01-29T02:33:31.887Z,68.57
2023-01-29T02:36:43.020Z,68.25
2023-01-29T02:39:54.964Z,68.66
2023-01-29T02:43:05.805Z,68.61
2023-01-29T02:46:17.486Z,68.99
2023-01-29T02:49:26.443Z,68.96
2023-01-29T02:52:38.733Z,69.43
2023-01-29T02:55:48.706Z,68.89
2023-01-29T02:58:58.962Z,68.93
2023-01-29T03:02:09.692Z,69.43
2023-01-29T03:05:19.543Z,69.62
2023-01-29T03:08:37.369Z,70.07
2023-01-29T03:11:50.277Z,70.44
2023-01-29T03:15:19.482Z,70.70
2023-01-29T03:18:46.125Z,70.27
2023-01-29T03:21:59.270Z,69.91
2023-01-29T03:25:24.363Z,70.27
2023-01-29T03:28:46.632Z,70.19
2023-01-29T03:32:08.440Z,69.59
2023-01-29T03:35:21.278Z,69.34
2023-01-29T03:38:31.879Z,69.67
2023-01-29T03:41:39.688Z,69.52
2023-01-29T03:44:52.081Z,69.87
2023-01-29T03:48:12.404Z,69.75
2023-01-29T03:51:27.735Z,70.28
2023-01-29T03:54:40.915Z,70.82
2023-01-29T03:57:53.881Z,70.69
2023-01-29T04:01:02.690Z,71.27
2023-01-29T04:04:15.994Z,71.25
2023-01-29T04:07:24.783Z,71.17
2023-01-29T04:10:40.135Z,71.67
2023-01-29T04:13:44.953Z,71.86
2023-01-29T04:16:54.756Z,71.69
2023-01-29T04:20:13.813Z,72.03
2023-01-29T04:23:25.288Z,72.22
2023-01-29T04:26:59.608Z,72.49
2023-01-29T04:30:15.968Z,73.24
2023-01-29T04:33:30.476Z,73.17
2023-01-29T04:36:40.269Z,72.87
2023-01-29T04:39:53.278Z,73.88
2023-01-29T04:43:05.405Z,73.53
2023-01-29T04:46:14.936Z,73.96
2023-01-29T04:49:30.494Z,74.35
2023-01-29T04:52:44.132Z,74.80
2023-01-29T04:55:52.670Z,76.66
2023-01-29T04:59:01.203Z,77.04
2023-01-29T05:02:07.695Z,77.05
2023-01-29T05:05:12.780Z,77.33
2023-01-29T05:08:20.553Z,77.28
2023-01-29T05:11:26.550Z,77.94
2023-01-29T05:14:33.842Z,79.29
2023-01-29T05:17:37.591Z,78.18
2023-01-29T05:20:43.853Z,78.27
2023-01-29T05:23:59.534Z,77.18
2023-01-29T05:27:22.493Z,76.21
2023-01-29T05:30:25.940Z,76.21
2023-01-29T05:33:31.493Z,75.78
2023-01-29T05:36:34.992Z,76.14
2023-01-29T05:39:38.530Z,75.52
2023-01-29T05:42:44.074Z,76.04
2023-01-29T05:45:55.033Z,75.84
2023-01-29T05:48:59.473Z,75.22
2023-01-29T05:52:03.045Z,74.63
2023-01-29T05:55:07.754Z,74.41
2023-01-29T05:58:12.849Z,74.83
2023-01-29T06:01:19.012Z,75.57
2023-01-29T06:04:22.697Z,75.89
2023-01-29T06:07:26.209Z,75.49
2023-01-29T06:10:30.169Z,74.78
2023-01-29T06:13:35.375Z,75.57
2023-01-29T06:16:39.101Z,76.04
2023-01-29T06:19:42.787Z,76.39
2023-01-29T06:22:46.504Z,75.57
2023-01-29T06:25:50.104Z,75.16
2023-01-29T06:28:55.106Z,74.54
2023-01-29T06:31:58.863Z,75.76
2023-01-29T06:35:02.563Z,75.04
2023-01-29T06:38:06.137Z,74.39
2023-01-29T06:41:11.412Z,74.43
2023-01-29T06:44:16.660Z,74.19
2023-01-29T06:47:20.247Z,73.54
2023-01-29T06:50:23.900Z,73.23
2023-01-29T06:53:27.687Z,73.97
2023-01-29T06:56:31.460Z,72.58
2023-01-29T06:59:36.576Z,72.31
2023-01-29T07:02:40.267Z,72.35
2023-01-29T07:05:43.876Z,71.63
2023-01-29T07:08:47.640Z,72.40
2023-01-29T07:11:51.361Z,72.56
2023-01-29T07:14:56.476Z,72.54
2023-01-29T07:18:01.276Z,72.06
2023-01-29T07:21:07.721Z,72.60
2023-01-29T07:24:11.586Z,73.45
2023-01-29T07:27:15.487Z,73.37
2023-01-29T07:30:21.623Z,72.94
2023-01-29T07:33:25.696Z,71.52
2023-01-29T07:36:29.970Z,71.80
2023-01-29T07:39:33.680Z,72.22
2023-01-29T07:42:37.536Z,71.66
2023-01-29T07:45:42.719Z,72.16
2023-01-29T07:48:46.581Z,71.28
2023-01-29T07:51:50.365Z,71.15
2023-01-29T07:54:54.085Z,71.11
2023-01-29T07:57:58.552Z,70.25
2023-01-29T08:01:07.825Z,69.90
2023-01-29T08:04:11.799Z,70.23
2023-01-29T08:07:15.505Z,69.96
2023-01-29T08:10:19.636Z,70.56
2023-01-29T08:13:23.644Z,71.05
2023-01-29T08:16:28.881Z,71.44
2023-01-29T08:19:32.600Z,70.61
2023-01-29T08:22:36.318Z,71.23
2023-01-29T08:25:40.103Z,71.30
2023-01-29T08:28:43.868Z,71.35
2023-01-29T08:31:49.091Z,70.53
2023-01-29T08:34:52.930Z,70.61
2023-01-29T08:37:58.577Z,71.23
2023-01-29T08:41:02.238Z,72.60
2023-01-29T08:44:06.625Z,73.01
2023-01-29T08:47:11.969Z,71.98
2023-01-29T08:50:16.365Z,72.52
2023-01-29T08:53:24.608Z,73.07
2023-01-29T08:56:28.317Z,73.06
2023-01-29T08:59:31.958Z,73.43
2023-01-29T09:02:37.099Z,73.95
2023-01-29T09:05:42.071Z,73.44
2023-01-29T09:08:45.964Z,73.92
2023-01-29T09:11:49.656Z,74.89
2023-01-29T09:14:53.555Z,74.89
2023-01-29T09:17:58.593Z,73.55
2023-01-29T09:21:02.936Z,74.25
2023-01-29T09:24:07.641Z,74.99
2023-01-29T09:27:11.308Z,75.23
2023-01-29T09:30:15.717Z,74.27
2023-01-29T09:33:21.191Z,75.38
2023-01-29T09:36:24.929Z,77.32
2023-01-29T09:39:28.606Z,76.25
2023-01-29T09:42:42.097Z,75.46
2023-01-29T09:45:54.982Z,74.91
2023-01-29T09:49:05.858Z,75.50
2023-01-29T09:52:16.658Z,75.53
2023-01-29T09:55:26.500Z,75.31
2023-01-29T09:58:33.783Z,76.03
2023-01-29T10:01:46.353Z,73.96
2023-01-29T10:05:09.928Z,74.13
2023-01-29T10:08:38.337Z,74.87
2023-01-29T10:11:51.254Z,73.95
2023-01-29T10:15:04.128Z,74.37
2023-01-29T10:18:47.488Z,75.28
2023-01-29T10:22:07.617Z,74.51
2023-01-29T10:25:13.560Z,73.71
2023-01-29T10:28:21.725Z,73.13
2023-01-29T10:31:28.870Z,72.93
2023-01-29T10:34:37.994Z,73.85
2023-01-29T10:37:44.340Z,73.64
2023-01-29T10:40:55.030Z,72.46
2023-01-29T10:44:14.192Z,72.50
2023-01-29T10:47:45.982Z,71.67
2023-01-29T10:50:53.847Z,70.19
2023-01-29T10:54:11.306Z,69.12
2023-01-29T10:57:24.723Z,68.99
2023-01-29T11:00:31.917Z,68.22
2023-01-29T11:03:35.856Z,68.12
2023-01-29T11:06:39.699Z,68.20
2023-01-29T11:09:52.188Z,68.48
2023-01-29T11:12:56.884Z,69.04
2023-01-29T11:16:00.840Z,68.30
2023-01-29T11:19:04.684Z,68.38
2023-01-29T11:22:15.449Z,68.71
2023-01-29T11:25:21.839Z,69.01
2023-01-29T11:28:40.769Z,69.25
2023-01-29T11:31:44.619Z,67.89
2023-01-29T11:35:05.279Z,67.64
2023-01-29T11:38:19.783Z,66.58
2023-01-29T11:41:25.660Z,66.18
2023-01-29T11:44:33.095Z,65.17
2023-01-29T11:47:37.095Z,64.50
2023-01-29T11:50:40.808Z,63.93
2023-01-29T11:53:46.958Z,63.50
2023-01-29T11:56:53.055Z,64.02
2023-01-29T11:59:59.874Z,63.85
2023-01-29T12:03:12.834Z,63.08
2023-01-29T12:06:21.409Z,63.24
2023-01-29T12:09:28.467Z,63.89
2023-01-29T12:12:43.861Z,63.58
2023-01-29T12:15:48.761Z,63.26
2023-01-29T12:18:56.881Z,63.46
2023-01-29T12:22:05.862Z,63.37
2023-01-29T12:25:22.968Z,63.87
2023-01-29T12:28:42.805Z,63.10
2023-01-29T12:31:55.094Z,63.08
2023-01-29T12:35:06.109Z,63.75
2023-01-29T12:38:17.757Z,63.50
2023-01-29T12:41:35.199Z,62.84
2023-01-29T12:44:45.245Z,64.19
2023-01-29T12:47:51.569Z,63.79
2023-01-29T12:50:57.245Z,62.62
2023-01-29T12:54:06.923Z,63.63
2023-01-29T12:57:20.223Z,63.41
2023-01-29T13:00:29.158Z,63.59
2023-01-29T13:03:40.911Z,63.25
2023-01-29T13:06:49.793Z,63.07
2023-01-29T13:09:58.737Z,62.68
2023-01-29T13:13:07.799Z,62.56
2023-01-29T13:16:16.042Z,63.23
2023-01-29T13:19:27.663Z,62.90
2023-01-29T13:22:36.849Z,63.01
2023-01-29T13:25:40.660Z,62.27
2023-01-29T13:28:46.827Z,62.31
2023-01-29T13:31:53.977Z,62.20
2023-01-29T13:35:00.346Z,61.45
2023-01-29T13:38:04.576Z,61.55
2023-01-29T13:41:10.093Z,60.54
2023-01-29T13:44:23.546Z,59.65
2023-01-29T13:47:31.401Z,59.30
2023-01-29T13:50:38.927Z,60.05
2023-01-29T13:53:44.624Z,60.49
2023-01-29T13:57:00.739Z,60.17
2023-01-29T14:00:05.602Z,60.11
2023-01-29T14:04:05.735Z,60.58
2023-01-29T14:07:51.918Z,60.86
2023-01-29T14:11:33.878Z,60.63
2023-01-29T14:15:04.481Z,60.87
2023-01-29T14:18:18.635Z,60.44
2023-01-29T14:21:25.477Z,60.30
2023-01-29T14:24:33.110Z,60.35
2023-01-29T14:27:38.591Z,60.60
2023-01-29T14:30:49.741Z,60.23
2023-01-29T14:33:54.701Z,59.81
2023-01-29T14:37:02.896Z,60.04
2023-01-29T14:40:21.816Z,59.38
2023-01-29T14:43:26.026Z,59.95
2023-01-29T14:46:46.526Z,59.79
2023-01-29T14:49:52.137Z,60.32
2023-01-29T14:53:01.219Z,61.00
2023-01-29T14:56:14.581Z,62.03
2023-01-29T14:59:22.281Z,62.39
2023-01-29T15:02:33.444Z,62.34
2023-01-29T15:05:40.546Z,63.32
2023-01-29T15:08:50.323Z,63.67
2023-01-29T15:12:04.825Z,63.15
2023-01-29T15:15:18.790Z,62.67
2023-01-29T15:18:33.202Z,62.97
2023-01-29T15:21:36.852Z,64.20
2023-01-29T15:24:42.527Z,64.51
2023-01-29T15:27:48.060Z,64.56
2023-01-29T15:30:55.589Z,64.32
2023-01-29T15:34:03.226Z,64.54
2023-01-29T15:37:06.981Z,65.45
2023-01-29T15:40:18.144Z,65.04
2023-01-29T15:43:25.456Z,65.44
2023-01-29T15:46:31.748Z,65.08
2023-01-29T15:49:37.848Z,66.68
2023-01-29T15:52:42.250Z,65.62
2023-01-29T15:55:47.646Z,66.11
2023-01-29T15:58:54.433Z,65.97
2023-01-29T16:01:58.367Z,66.07
2023-01-29T16:05:02.982Z,65.77
2023-01-29T16:08:07.961Z,65.72
2023-01-29T16:11:12.184Z,66.24
2023-01-29T16:14:21.844Z,65.77
2023-01-29T16:17:27.397Z,67.17
2023-01-29T16:20:39.113Z,67.23
2023-01-29T16:23:45.749Z,67.41
2023-01-29T16:26:51.647Z,66.69
2023-01-29T16:29:56.713Z,65.93
2023-01-29T16:33:05.302Z,66.60
2023-01-29T16:36:15.122Z,66.25
2023-01-29T16:39:22.771Z,66.53
2023-01-29T16:42:31.395Z,65.68
2023-01-29T16:45:36.668Z,66.14
2023-01-29T16:48:40.430Z,66.05
2023-01-29T16:51:44.131Z,66.65
2023-01-29T16:54:47.853Z,65.86
2023-01-29T16:57:54.822Z,66.28
2023-01-29T17:01:02.634Z,65.93
2023-01-29T17:04:11.314Z,65.94
2023-01-29T17:07:21.503Z,66.12
2023-01-29T17:10:26.530Z,65.97
2023-01-29T17:13:35.872Z,65.76
2023-01-29T17:16:51.875Z,65.51
2023-01-29T17:19:55.658Z,66.12
2023-01-29T17:22:59.394Z,66.05
2023-01-29T17:26:03.462Z,65.76
2023-01-29T17:29:08.524Z,65.30
2023-01-29T17:32:13.664Z,65.80
2023-01-29T17:35:18.702Z,66.02
2023-01-29T17:38:26.326Z,66.54
2023-01-29T17:41:32.715Z,65.91
2023-01-29T17:44:36.584Z,66.22
2023-01-29T17:47:41.724Z,66.63
2023-01-29T17:50:48.752Z,66.06
2023-01-29T17:53:52.477Z,66.59
2023-01-29T17:56:56.587Z,66.11
2023-01-29T18:00:00.314Z,65.62
2023-01-29T18:03:05.574Z,65.79
2023-01-29T18:06:10.464Z,65.79
2023-01-29T18:09:15.314Z,65.47
2023-01-29T18:12:19.241Z,66.39
2023-01-29T18:15:23.206Z,65.52
2023-01-29T18:18:29.485Z,66.13
2023-01-29T18:21:33.290Z,65.35
2023-01-29T18:24:37.049Z,65.68
2023-01-29T18:27:40.865Z,65.76
2023-01-29T18:30:47.349Z,65.24
2023-01-29T18:33:52.684Z,66.04
2023-01-29T18:36:56.420Z,64.86
2023-01-29T18:40:00.448Z,65.25
2023-01-29T18:43:04.514Z,66.16
2023-01-29T18:46:09.051Z,66.74
2023-01-29T18:49:14.276Z,66.86
2023-01-29T18:52:17.954Z,67.69
2023-01-29T18:55:22.180Z,67.63
2023-01-29T18:58:35.972Z,67.33
2023-01-29T19:01:39.972Z,67.24
2023-01-29T19:04:45.260Z,67.40
2023-01-29T19:07:49.049Z,67.81
2023-01-29T19:10:52.692Z,67.08
2023-01-29T19:13:56.491Z,67.35
2023-01-29T19:17:01.758Z,67.57
2023-01-29T19:20:07.782Z,67.02
2023-01-29T19:23:11.653Z,66.73
2023-01-29T19:26:15.869Z,66.03
2023-01-29T19:29:20.384Z,66.65
2023-01-29T19:32:24.463Z,66.56
2023-01-29T19:35:29.612Z,67.19
2023-01-29T19:38:38.347Z,67.42
2023-01-29T19:41:42.387Z,66.50
2023-01-29T19:44:46.323Z,66.59
2023-01-29T19:47:50.029Z,67.17
2023-01-29T19:50:56.258Z,67.98
2023-01-29T19:54:00.374Z,67.20
2023-01-29T19:57:04.720Z,66.53
2023-01-29T20:00:12.371Z,66.40
2023-01-29T20:03:16.425Z,66.13
2023-01-29T20:06:25.339Z,66.22
2023-01-29T20:09:30.564Z,66.01
2023-01-29T20:12:34.900Z,66.05
2023-01-29T20:15:38.531Z,67.10
2023-01-29T20:18:42.211Z,66.67
2023-01-29T20:21:49.980Z,66.74
2023-01-29T20:24:53.708Z,67.00
2023-01-29T20:27:57.414Z,66.76
2023-01-29T20:31:01.285Z,66.81
2023-01-29T20:34:05.214Z,66.40
2023-01-29T20:37:10.309Z,65.91
2023-01-29T20:40:15.890Z,66.68
2023-01-29T20:43:19.749Z,66.39
2023-01-29T20:46:23.484Z,66.53
2023-01-29T20:49:28.639Z,66.74
2023-01-29T20:52:33.721Z,66.26
2023-01-29T20:55:37.647Z,66.46
2023-01-29T20:58:41.966Z,66.67
2023-01-29T21:01:45.828Z,67.25
2023-01-29T21:04:49.576Z,67.10
2023-01-29T21:07:54.770Z,66.61
2023-01-29T21:10:58.459Z,67.39
2023-01-29T21:14:02.179Z,67.64
2023-01-29T21:17:06.294Z,66.68
2023-01-29T21:20:11.276Z,66.69
2023-01-29T21:23:16.461Z,67.25
2023-01-29T21:26:20.268Z,67.79
2023-01-29T21:29:24.041Z,67.94
2023-01-29T21:32:28.254Z,67.72
2023-01-29T21:35:32.157Z,67.69
2023-01-29T21:38:37.383Z,67.48
2023-01-29T21:41:58.367Z,67.70
2023-01-29T21:45:02.021Z,67.89
2023-01-29T21:48:06.173Z,67.74
2023-01-29T21:51:10.300Z,67.95
2023-01-29T21:54:15.636Z,67.86
2023-01-29T21:57:19.339Z,68.10
2023-01-29T22:00:23.239Z,67.34
2023-01-29T22:03:26.993Z,67.04
2023-01-29T22:06:30.645Z,67.40
2023-01-29T22:09:35.829Z,68.17
2023-01-29T22:12:39.732Z,67.68
2023-01-29T22:15:43.444Z,67.79
2023-01-29T22:18:47.287Z,68.27
2023-01-29T22:21:51.335Z,68.31
2023-01-29T22:24:58.467Z,67.50
2023-01-29T22:28:02.169Z,67.93
2023-01-29T22:31:06.866Z,68.67
2023-01-29T22:34:11.333Z,68.27
2023-01-29T22:37:15.071Z,67.96
2023-01-29T22:40:20.570Z,68.04
2023-01-29T22:43:26.238Z,69.34
2023-01-29T22:46:30.041Z,69.02
2023-01-29T22:49:33.724Z,68.66
2023-01-29T22:52:39.671Z,69.13
2023-01-29T22:55:44.707Z,68.58
2023-01-29T22:58:52.048Z,67.90
2023-01-29T23:01:55.809Z,67.80
2023-01-29T23:04:59.552Z,67.10
2023-01-29T23:08:03.192Z,67.53
2023-01-29T23:11:15.231Z,67.26
2023-01-29T23:14:19.200Z,66.91
2023-01-29T23:17:22.994Z,67.33
2023-01-29T23:20:26.749Z,67.12
2023-01-29T23:23:30.782Z,67.26
2023-01-29T23:26:53.140Z,67.11
2023-01-29T23:29:56.883Z,66.45
2023-01-29T23:33:00.642Z,66.19
2023-01-29T23:36:04.592Z,66.06
2023-01-29T23:39:08.562Z,66.59
2023-01-29T23:42:13.725Z,66.67
2023-01-29T23:45:17.710Z,66.84
2023-01-29T23:48:21.696Z,66.69
2023-01-29T23:51:25.583Z,66.82
2023-01-29T23:54:29.481Z,66.56
2023-01-29T23:57:34.546Z,66.49
